Time;durP1;ratioP1;P1;durP2;ratioP2;P2;SDS_P1;SDS_P2;PMS_P1;PMS_P2;Temp;Humidity;BMP_temperature;BMP_pressure;BME280_temperature;BME280_humidity;BME280_pressure;Samples;Min_cycle;Max_cycle;Signal;HPM_P1;HPM_P2
2022/11/27 00:01:11;;;;;;;13.95;9.38;;;;;;;;;;1689122;84;21517;-76
2022/11/27 00:03:38;;;;;;;12.25;9.45;;;;;;;;;;1695258;83;20953;-75
2022/11/27 00:06:05;;;;;;;16.10;10.90;;;;;;;;;;1694174;84;20919;-75
2022/11/27 00:08:33;;;;;;;21.77;13.83;;;;;;;;;;1693401;83;21511;-71
2022/11/27 00:11:09;;;;;;;22.58;13.58;;;;;;;;;;1693015;83;21313;-72
2022/11/27 00:13:35;;;;;;;27.55;14.98;;;;;;;;;;1691924;83;21419;-77
2022/11/27 00:16:03;;;;;;;23.10;12.20;;;;;;;;;;1691541;83;20893;-76
2022/11/27 00:18:29;;;;;;;18.83;12.10;;;;;;;;;;1695349;83;20952;-74
2022/11/27 00:21:02;;;;;;;27.73;14.18;;;;;;;;;;1691474;83;20881;-76
2022/11/27 00:23:28;;;;;;;24.25;13.35;;;;;;;;;;1695067;83;21095;-72
2022/11/27 00:25:55;;;;;;;68.40;27.85;;;;;;;;;;1692031;83;20902;-76
2022/11/27 00:28:21;;;;;;;25.65;14.87;;;;;;;;;;1695531;83;21080;-73
2022/11/27 00:30:47;;;;;;;20.70;13.10;;;;;;;;;;1690087;83;20901;-74
2022/11/27 00:33:14;;;;;;;45.35;23.77;;;;;;;;;;1687877;85;21526;-74
2022/11/27 00:35:40;;;;;;;70.47;35.55;;;;;;;;;;1668730;84;21308;-76
2022/11/27 00:38:07;;;;;;;43.73;22.70;;;;;;;;;;1694998;84;21012;-74
2022/11/27 00:40:33;;;;;;;42.98;23.00;;;;;;;;;;1687784;84;21029;-73
2022/11/27 00:43:00;;;;;;;32.55;17.77;;;;;;;;;;1687997;85;20992;-75
2022/11/27 00:45:27;;;;;;;37.73;20.60;;;;;;;;;;1688364;84;20933;-73
2022/11/27 00:47:54;;;;;;;20.43;12.63;;;;;;;;;;1688319;84;21157;-75
2022/11/27 00:50:20;;;;;;;20.62;13.68;;;;;;;;;;1687848;85;20984;-74
2022/11/27 00:52:47;;;;;;;11.22;8.43;;;;;;;;;;1688119;84;20905;-74
2022/11/27 00:55:13;;;;;;;40.25;23.18;;;;;;;;;;1688825;84;20925;-78
2022/11/27 00:57:40;;;;;;;15.43;11.00;;;;;;;;;;1689413;85;21455;-74
2022/11/27 01:00:08;;;;;;;11.65;9.43;;;;;;;;;;1688089;85;21249;-76
2022/11/27 01:02:35;;;;;;;13.43;9.90;;;;;;;;;;1691396;83;20918;-74
2022/11/27 01:05:02;;;;;;;15.18;9.85;;;;;;;;;;1689326;83;20937;-75
2022/11/27 01:07:30;;;;;;;10.98;7.90;;;;;;;;;;1660168;86;21049;-74
2022/11/27 01:09:57;;;;;;;11.50;9.35;;;;;;;;;;1679921;83;20940;-75
2022/11/27 01:12:24;;;;;;;9.23;7.83;;;;;;;;;;1684448;85;21598;-74
2022/11/27 01:14:50;;;;;;;14.10;10.45;;;;;;;;;;1686738;84;21013;-77
2022/11/27 01:17:17;;;;;;;22.70;14.38;;;;;;;;;;1684690;83;20890;-76
2022/11/27 01:19:44;;;;;;;59.60;30.68;;;;;;;;;;1686918;83;20961;-75
2022/11/27 01:22:10;;;;;;;31.33;21.23;;;;;;;;;;1685547;83;21001;-72
2022/11/27 01:24:37;;;;;;;52.83;32.08;;;;;;;;;;1686577;84;21238;-76
2022/11/27 01:27:03;;;;;;;14.50;10.38;;;;;;;;;;1658839;84;20997;-75
2022/11/27 01:29:30;;;;;;;10.43;8.55;;;;;;;;;;1679959;83;20914;-75
2022/11/27 01:31:57;;;;;;;9.20;7.92;;;;;;;;;;1677681;85;20906;-75
2022/11/27 01:34:23;;;;;;;12.33;9.68;;;;;;;;;;1674809;84;20954;-76
2022/11/27 01:36:50;;;;;;;11.85;9.13;;;;;;;;;;1673047;84;21157;-79
2022/11/27 01:39:17;;;;;;;12.03;9.38;;;;;;;;;;1679912;85;20942;-75
2022/11/27 01:41:44;;;;;;;10.88;8.60;;;;;;;;;;1687869;84;20940;-72
2022/11/27 01:44:26;;;;;;;28.27;16.67;;;;;;;;;;1688886;84;21674;-74
2022/11/27 01:46:59;;;;;;;69.15;32.15;;;;;;;;;;1686038;84;20980;-75
2022/11/27 01:49:35;;;;;;;19.50;12.07;;;;;;;;;;1678875;84;22171;-74
2022/11/27 01:52:16;;;;;;;15.95;10.63;;;;;;;;;;1688024;85;20941;-74
2022/11/27 01:54:46;;;;;;;12.35;9.88;;;;;;;;;;1688200;85;20937;-72
2022/11/27 01:57:21;;;;;;;23.40;14.68;;;;;;;;;;1688342;84;21565;-77
2022/11/27 01:59:48;;;;;;;18.75;11.15;;;;;;;;;;1689767;84;20901;-75
2022/11/27 02:02:14;;;;;;;11.97;8.03;;;;;;;;;;1661522;85;20910;-76
2022/11/27 02:04:41;;;;;;;15.80;10.93;;;;;;;;;;1687419;83;21025;-75
2022/11/27 02:07:08;;;;;;;15.63;9.60;;;;;;;;;;1685234;83;20941;-75
2022/11/27 02:09:36;;;;;;;14.90;10.78;;;;;;;;;;1658854;86;20917;-79
2022/11/27 02:12:24;;;;;;;16.75;10.45;;;;;;;;;;1686977;84;21064;-75
2022/11/27 02:15:12;;;;;;;14.05;10.00;;;;;;;;;;1683799;83;21275;-76
2022/11/27 02:18:01;;;;;;;14.13;9.93;;;;;;;;;;1689392;83;21170;-74
2022/11/27 02:20:40;;;;;;;12.63;10.20;;;;;;;;;;1633660;86;21024;-73
2022/11/27 02:23:39;;;;;;;13.70;11.05;;;;;;;;;;1633574;86;21055;-75
2022/11/27 02:26:29;;;;;;;14.47;10.25;;;;;;;;;;1580123;90;20961;-73
2022/11/27 02:29:08;;;;;;;19.23;14.50;;;;;;;;;;1567972;91;21475;-74
2022/11/27 02:32:02;;;;;;;16.55;12.50;;;;;;;;;;1570354;90;20985;-77
2022/11/27 02:34:50;;;;;;;28.65;16.07;;;;;;;;;;1585652;90;20968;-74
2022/11/27 02:37:35;;;;;;;22.90;12.98;;;;;;;;;;1585289;90;20936;-76
2022/11/27 02:40:14;;;;;;;21.62;13.95;;;;;;;;;;1585331;90;21024;-75
2022/11/27 02:42:56;;;;;;;26.23;16.62;;;;;;;;;;1584222;90;21303;-76
2022/11/27 02:45:27;;;;;;;22.93;14.83;;;;;;;;;;1584967;90;21036;-76
2022/11/27 02:47:53;;;;;;;22.22;14.47;;;;;;;;;;1584914;90;20980;-75
2022/11/27 02:50:21;;;;;;;26.90;17.00;;;;;;;;;;1584912;90;20929;-79
2022/11/27 02:52:48;;;;;;;24.73;16.80;;;;;;;;;;1584957;90;21079;-76
2022/11/27 02:55:17;;;;;;;24.30;16.23;;;;;;;;;;1588249;87;21341;-79
2022/11/27 02:57:43;;;;;;;28.50;16.85;;;;;;;;;;1636406;87;21081;-78
2022/11/27 03:00:10;;;;;;;22.65;14.18;;;;;;;;;;1633847;87;20949;-75
2022/11/27 03:02:45;;;;;;;21.42;14.20;;;;;;;;;;1675447;83;20898;-74
2022/11/27 03:05:14;;;;;;;23.67;14.73;;;;;;;;;;1679226;84;21625;-73
2022/11/27 03:07:45;;;;;;;21.35;14.78;;;;;;;;;;1684696;84;21143;-79
2022/11/27 03:10:16;;;;;;;27.95;18.87;;;;;;;;;;1684563;83;20894;-77
2022/11/27 03:12:43;;;;;;;34.25;18.85;;;;;;;;;;1687076;83;21498;-75
2022/11/27 03:15:09;;;;;;;32.70;18.05;;;;;;;;;;1690172;83;20937;-76
2022/11/27 03:17:55;;;;;;;40.83;20.57;;;;;;;;;;1689421;83;20901;-77
2022/11/27 03:20:29;;;;;;;19.95;13.03;;;;;;;;;;1684388;83;21171;-73
2022/11/27 03:22:55;;;;;;;17.52;12.47;;;;;;;;;;1686516;83;20901;-79
2022/11/27 03:25:22;;;;;;;25.80;15.15;;;;;;;;;;1694923;83;20937;-75
2022/11/27 03:27:55;;;;;;;24.70;14.55;;;;;;;;;;1692731;83;21052;-76
2022/11/27 03:30:22;;;;;;;29.25;17.37;;;;;;;;;;1663162;84;21014;-73
2022/11/27 03:32:49;;;;;;;22.75;15.05;;;;;;;;;;1677518;85;21146;-77
2022/11/27 03:35:17;;;;;;;21.90;14.35;;;;;;;;;;1629771;87;20882;-74
2022/11/27 03:37:44;;;;;;;24.82;14.73;;;;;;;;;;1669564;85;20966;-75
2022/11/27 03:40:12;;;;;;;25.10;14.58;;;;;;;;;;1684796;85;21310;-75
2022/11/27 03:43:05;;;;;;;19.52;13.53;;;;;;;;;;1666927;85;20922;-76
2022/11/27 03:45:41;;;;;;;21.62;13.48;;;;;;;;;;1688255;84;21553;-76
2022/11/27 03:48:21;;;;;;;26.02;15.10;;;;;;;;;;1688274;84;20865;-75
2022/11/27 03:51:15;;;;;;;27.45;17.25;;;;;;;;;;1685184;84;21415;-78
2022/11/27 03:54:03;;;;;;;26.45;18.05;;;;;;;;;;1686124;84;20960;-78
2022/11/27 03:56:35;;;;;;;;;;;;;;;;;;1671348;84;21043;-77
2022/11/27 03:59:13;;;;;;;22.55;16.25;;;;;;;;;;1687803;84;21107;-75
2022/11/27 04:01:40;;;;;;;24.10;14.85;;;;;;;;;;1689280;83;20925;-75
2022/11/27 04:04:06;;;;;;;15.35;12.35;;;;;;;;;;1690531;83;20945;-76
2022/11/27 04:06:33;;;;;;;21.75;14.75;;;;;;;;;;1690622;83;20921;-76
2022/11/27 04:09:00;;;;;;;24.90;17.45;;;;;;;;;;1695522;83;20944;-74
2022/11/27 04:11:27;;;;;;;25.05;15.78;;;;;;;;;;1694450;84;21867;-74
2022/11/27 04:13:53;;;;;;;21.52;13.75;;;;;;;;;;1690140;83;20949;-77
2022/11/27 04:16:20;;;;;;;19.02;12.37;;;;;;;;;;1693063;83;21636;-73
2022/11/27 04:18:46;;;;;;;15.95;11.73;;;;;;;;;;1691383;83;20893;-77
2022/11/27 04:21:12;;;;;;;14.47;10.48;;;;;;;;;;1692459;83;21498;-76
2022/11/27 04:23:39;;;;;;;13.45;9.93;;;;;;;;;;1694267;83;21104;-76
2022/11/27 04:26:06;;;;;;;14.00;10.72;;;;;;;;;;1659689;86;20905;-78
2022/11/27 04:28:32;;;;;;;12.03;9.40;;;;;;;;;;1684392;83;21513;-80
2022/11/27 04:30:59;;;;;;;13.03;9.98;;;;;;;;;;1660219;84;20865;-76
2022/11/27 04:33:26;;;;;;;15.20;10.60;;;;;;;;;;1688323;84;21009;-78
2022/11/27 04:35:53;;;;;;;20.30;13.28;;;;;;;;;;1689362;85;21860;-77
2022/11/27 04:38:20;;;;;;;21.17;13.38;;;;;;;;;;1689724;84;21444;-75
2022/11/27 04:40:46;;;;;;;16.93;10.75;;;;;;;;;;1689961;85;20988;-76
2022/11/27 04:43:13;;;;;;;14.25;11.03;;;;;;;;;;1684330;84;21482;-76
2022/11/27 04:45:40;;;;;;;12.85;10.40;;;;;;;;;;1632026;86;21388;-78
2022/11/27 04:48:06;;;;;;;13.95;10.88;;;;;;;;;;1687791;84;21871;-76
2022/11/27 04:50:33;;;;;;;15.88;11.15;;;;;;;;;;1689557;84;21502;-77
2022/11/27 04:53:00;;;;;;;14.73;11.15;;;;;;;;;;1687883;84;20953;-77
2022/11/27 04:55:26;;;;;;;14.83;11.35;;;;;;;;;;1689540;84;20908;-78
2022/11/27 04:57:52;;;;;;;12.90;11.00;;;;;;;;;;1689608;84;20976;-78
2022/11/27 05:00:20;;;;;;;16.05;12.00;;;;;;;;;;1687194;84;21066;-79
2022/11/27 05:02:46;;;;;;;17.37;13.68;;;;;;;;;;1692139;83;20859;-75
2022/11/27 05:05:12;;;;;;;39.05;25.48;;;;;;;;;;1690968;83;21506;-77
2022/11/27 05:07:39;;;;;;;65.05;37.78;;;;;;;;;;1692666;83;21029;-75
2022/11/27 05:10:07;;;;;;;62.70;33.25;;;;;;;;;;1694266;83;20921;-80
2022/11/27 05:12:33;;;;;;;68.12;36.63;;;;;;;;;;1694931;83;21147;-75
2022/11/27 05:15:00;;;;;;;62.88;37.03;;;;;;;;;;1695662;83;20972;-75
2022/11/27 05:17:27;;;;;;;21.87;16.20;;;;;;;;;;1693434;83;20885;-79
2022/11/27 05:19:53;;;;;;;22.70;17.65;;;;;;;;;;1690562;83;20925;-76
2022/11/27 05:22:20;;;;;;;16.73;13.15;;;;;;;;;;1693730;83;20889;-79
2022/11/27 05:24:48;;;;;;;17.60;12.88;;;;;;;;;;1668420;84;22203;-75
2022/11/27 05:27:15;;;;;;;13.98;12.37;;;;;;;;;;1691116;83;21001;-74
2022/11/27 05:29:42;;;;;;;15.08;13.35;;;;;;;;;;1695617;83;20913;-76
2022/11/27 05:32:10;;;;;;;13.43;11.80;;;;;;;;;;1687734;85;20921;-77
2022/11/27 05:34:37;;;;;;;12.65;9.10;;;;;;;;;;1689558;84;20921;-73
2022/11/27 05:37:03;;;;;;;12.28;9.63;;;;;;;;;;1689864;85;21249;-75
2022/11/27 05:39:30;;;;;;;10.70;8.63;;;;;;;;;;1688876;84;20858;-73
2022/11/27 05:41:57;;;;;;;10.88;8.63;;;;;;;;;;1688184;85;20932;-74
2022/11/27 05:44:25;;;;;;;11.83;8.20;;;;;;;;;;1688834;84;21084;-75
2022/11/27 05:46:51;;;;;;;13.08;9.75;;;;;;;;;;1668588;84;21517;-75
2022/11/27 05:49:18;;;;;;;14.68;10.05;;;;;;;;;;1693845;84;21675;-74
2022/11/27 05:51:44;;;;;;;14.18;9.45;;;;;;;;;;1690111;84;21498;-76
2022/11/27 05:54:11;;;;;;;16.20;11.93;;;;;;;;;;1689559;84;20949;-74
2022/11/27 05:56:37;;;;;;;14.38;9.78;;;;;;;;;;1687876;84;20897;-78
2022/11/27 05:59:03;;;;;;;15.60;11.18;;;;;;;;;;1688976;84;20992;-74
2022/11/27 06:01:30;;;;;;;16.27;10.63;;;;;;;;;;1689163;83;21140;-77
2022/11/27 06:03:56;;;;;;;17.40;11.03;;;;;;;;;;1690503;83;20937;-78
2022/11/27 06:06:22;;;;;;;14.73;10.15;;;;;;;;;;1695418;83;21506;-74
2022/11/27 06:08:50;;;;;;;16.53;12.17;;;;;;;;;;1693785;83;20962;-75
2022/11/27 06:11:19;;;;;;;16.50;10.72;;;;;;;;;;1693310;83;20941;-77
2022/11/27 06:13:46;;;;;;;15.15;10.70;;;;;;;;;;1693620;83;21116;-75
2022/11/27 06:16:18;;;;;;;13.10;9.80;;;;;;;;;;1689830;83;21451;-74
2022/11/27 06:18:53;;;;;;;15.72;9.90;;;;;;;;;;1695496;83;21478;-76
2022/11/27 06:21:20;;;;;;;12.78;9.88;;;;;;;;;;1690210;83;21012;-76
2022/11/27 06:23:48;;;;;;;18.30;11.43;;;;;;;;;;1657736;86;21470;-77
2022/11/27 06:26:17;;;;;;;19.77;11.10;;;;;;;;;;1679797;83;21501;-78
2022/11/27 06:28:45;;;;;;;16.62;10.48;;;;;;;;;;1685397;83;20909;-79
2022/11/27 06:31:15;;;;;;;18.10;11.90;;;;;;;;;;1678448;84;20993;-78
2022/11/27 06:33:41;;;;;;;18.23;11.28;;;;;;;;;;1687581;85;21546;-76
2022/11/27 06:36:08;;;;;;;19.60;11.33;;;;;;;;;;1633185;86;20924;-74
2022/11/27 06:38:35;;;;;;;19.62;12.68;;;;;;;;;;1681119;85;21208;-78
2022/11/27 06:41:08;;;;;;;21.85;12.33;;;;;;;;;;1688031;84;20944;-76
2022/11/27 06:43:36;;;;;;;19.05;11.83;;;;;;;;;;1687107;84;20949;-77
2022/11/27 06:46:03;;;;;;;18.00;11.87;;;;;;;;;;1688356;84;20909;-79
2022/11/27 06:48:29;;;;;;;18.35;12.18;;;;;;;;;;1679237;85;20981;-78
2022/11/27 06:51:01;;;;;;;17.42;11.75;;;;;;;;;;1688682;84;21097;-76
2022/11/27 06:53:28;;;;;;;18.80;13.18;;;;;;;;;;1687978;84;20922;-78
2022/11/27 06:55:55;;;;;;;17.85;11.80;;;;;;;;;;1631949;86;20944;-75
2022/11/27 06:58:21;;;;;;;23.05;13.45;;;;;;;;;;1668250;84;21421;-79
2022/11/27 07:00:47;;;;;;;22.07;13.15;;;;;;;;;;1690289;84;20949;-79
2022/11/27 07:03:14;;;;;;;19.42;11.20;;;;;;;;;;1668956;84;21091;-78
2022/11/27 07:05:40;;;;;;;20.72;13.05;;;;;;;;;;1693213;83;20893;-77
2022/11/27 07:08:06;;;;;;;20.35;13.43;;;;;;;;;;1690839;83;20956;-78
2022/11/27 07:10:34;;;;;;;18.48;10.98;;;;;;;;;;1693308;84;21009;-74
2022/11/27 07:13:01;;;;;;;17.35;11.28;;;;;;;;;;1689480;83;21475;-74
2022/11/27 07:15:28;;;;;;;47.05;16.15;;;;;;;;;;1694367;84;21507;-75
2022/11/27 07:17:56;;;;;;;27.27;15.40;;;;;;;;;;1693770;83;20925;-78
2022/11/27 07:20:22;;;;;;;21.48;15.83;;;;;;;;;;1694780;84;20941;-77
2022/11/27 07:22:49;;;;;;;22.13;15.20;;;;;;;;;;1695562;83;21407;-77
2022/11/27 07:25:15;;;;;;;24.77;20.05;;;;;;;;;;1695282;83;20945;-73
2022/11/27 07:27:42;;;;;;;24.60;18.62;;;;;;;;;;1692428;83;21091;-76
2022/11/27 07:30:08;;;;;;;22.77;16.52;;;;;;;;;;1694662;83;20909;-75
2022/11/27 07:32:36;;;;;;;18.37;12.20;;;;;;;;;;1688892;84;20878;-76
2022/11/27 07:35:02;;;;;;;27.30;17.55;;;;;;;;;;1688301;84;20934;-75
2022/11/27 07:37:30;;;;;;;21.15;12.47;;;;;;;;;;1667446;84;21511;-76
2022/11/27 07:39:56;;;;;;;20.23;12.65;;;;;;;;;;1688968;84;21156;-78
2022/11/27 07:42:23;;;;;;;21.70;13.18;;;;;;;;;;1689590;85;20952;-73
2022/11/27 07:44:49;;;;;;;19.73;13.62;;;;;;;;;;1658932;85;21408;-77
2022/11/27 07:47:15;;;;;;;16.70;11.80;;;;;;;;;;1678257;85;20981;-74
2022/11/27 07:49:42;;;;;;;18.12;12.50;;;;;;;;;;1675170;85;21448;-76
2022/11/27 07:52:08;;;;;;;21.02;12.53;;;;;;;;;;1688311;84;21136;-77
2022/11/27 07:54:35;;;;;;;17.92;12.15;;;;;;;;;;1689678;84;21439;-76
2022/11/27 07:57:01;;;;;;;18.82;10.82;;;;;;;;;;1688426;84;20897;-75
2022/11/27 07:59:27;;;;;;;19.00;11.70;;;;;;;;;;1689227;84;20929;-74
2022/11/27 08:01:53;;;;;;;18.73;11.73;;;;;;;;;;1669832;84;20989;-74
2022/11/27 08:04:20;;;;;;;19.25;12.53;;;;;;;;;;1683726;83;21039;-74
2022/11/27 08:06:47;;;;;;;20.23;11.75;;;;;;;;;;1679320;84;20865;-72
2022/11/27 08:09:14;;;;;;;22.22;12.93;;;;;;;;;;1685593;83;21024;-76
2022/11/27 08:11:40;;;;;;;18.02;12.88;;;;;;;;;;1683515;83;21431;-72
2022/11/27 08:14:07;;;;;;;20.72;13.10;;;;;;;;;;1687302;83;21002;-75
2022/11/27 08:16:34;;;;;;;20.77;13.60;;;;;;;;;;1688648;84;21134;-77
2022/11/27 08:19:00;;;;;;;21.73;13.30;;;;;;;;;;1686165;84;21381;-74
2022/11/27 08:21:27;;;;;;;18.62;12.82;;;;;;;;;;1662048;84;20863;-74
2022/11/27 08:23:53;;;;;;;26.62;16.67;;;;;;;;;;1683498;83;20946;-76
2022/11/27 08:26:26;;;;;;;26.37;15.88;;;;;;;;;;1687502;84;21468;-73
2022/11/27 08:28:47;;;;;;;23.85;13.98;;;;;;;;;;1684831;83;21423;-75
2022/11/27 08:31:14;;;;;;;29.20;19.30;;;;;;;;;;1674537;84;20898;-75
2022/11/27 08:33:40;;;;;;;24.05;14.03;;;;;;;;;;1688516;85;20850;-75
2022/11/27 08:36:08;;;;;;;30.35;18.80;;;;;;;;;;1689355;84;20965;-75
2022/11/27 08:38:35;;;;;;;21.55;13.55;;;;;;;;;;1690185;84;21472;-70
2022/11/27 08:41:03;;;;;;;20.50;13.40;;;;;;;;;;1688363;85;21058;-75
2022/11/27 08:43:29;;;;;;;23.00;15.03;;;;;;;;;;1688712;84;20937;-76
2022/11/27 08:45:56;;;;;;;28.02;19.07;;;;;;;;;;1689432;84;20902;-73
2022/11/27 08:48:22;;;;;;;22.27;14.43;;;;;;;;;;1684870;85;20945;-74
2022/11/27 08:50:49;;;;;;;21.27;15.10;;;;;;;;;;1630534;88;20893;-75
2022/11/27 08:53:16;;;;;;;21.23;13.83;;;;;;;;;;1688840;84;21736;-72
2022/11/27 08:55:42;;;;;;;21.62;13.93;;;;;;;;;;1688084;85;20901;-74
2022/11/27 08:58:09;;;;;;;22.30;14.87;;;;;;;;;;1688980;84;20928;-75
2022/11/27 09:00:35;;;;;;;19.98;13.48;;;;;;;;;;1683966;84;20961;-71
2022/11/27 09:03:02;;;;;;;20.92;12.95;;;;;;;;;;1684440;85;20906;-75
2022/11/27 09:05:28;;;;;;;20.05;12.58;;;;;;;;;;1690574;83;21210;-74
2022/11/27 09:07:55;;;;;;;18.70;12.25;;;;;;;;;;1679812;84;21460;-75
2022/11/27 09:10:21;;;;;;;21.15;14.30;;;;;;;;;;1685340;84;21427;-73
2022/11/27 09:12:48;;;;;;;21.15;13.55;;;;;;;;;;1684080;83;21508;-72
2022/11/27 09:15:15;;;;;;;58.05;36.45;;;;;;;;;;1687644;83;20941;-75
2022/11/27 09:17:41;;;;;;;38.17;22.90;;;;;;;;;;1694419;83;21108;-72
2022/11/27 09:20:08;;;;;;;25.37;16.57;;;;;;;;;;1692717;83;20861;-75
2022/11/27 09:22:35;;;;;;;135.50;76.05;;;;;;;;;;1669366;84;34205;-72
2022/11/27 09:25:02;;;;;;;41.33;24.85;;;;;;;;;;1690665;83;21494;-73
2022/11/27 09:27:28;;;;;;;23.62;14.10;;;;;;;;;;1689576;83;20913;-74
2022/11/27 09:29:55;;;;;;;22.82;14.18;;;;;;;;;;1693934;83;21429;-73
2022/11/27 09:32:21;;;;;;;22.60;13.65;;;;;;;;;;1689856;84;21430;-74
2022/11/27 09:34:50;;;;;;;25.15;16.07;;;;;;;;;;1686348;84;20890;-72
2022/11/27 09:37:17;;;;;;;21.77;13.98;;;;;;;;;;1688644;84;20902;-73
2022/11/27 09:39:43;;;;;;;28.65;17.92;;;;;;;;;;1687726;84;20941;-74
2022/11/27 09:42:13;;;;;;;26.20;17.10;;;;;;;;;;1686522;84;21236;-74
2022/11/27 09:44:45;;;;;;;23.42;14.70;;;;;;;;;;1670253;85;20918;-75
2022/11/27 09:47:24;;;;;;;24.00;15.85;;;;;;;;;;1686411;84;21435;-74
2022/11/27 09:49:59;;;;;;;23.67;13.93;;;;;;;;;;1672676;85;20934;-73
2022/11/27 09:52:43;;;;;;;26.40;14.53;;;;;;;;;;1631353;87;20941;-72
2022/11/27 09:55:26;;;;;;;23.07;13.65;;;;;;;;;;1659114;85;21074;-72
2022/11/27 09:57:59;;;;;;;27.90;15.90;;;;;;;;;;1674004;85;20910;-73
2022/11/27 10:00:25;;;;;;;26.30;16.00;;;;;;;;;;1670805;84;20874;-74
2022/11/27 10:02:52;;;;;;;25.62;16.17;;;;;;;;;;1687625;83;20966;-74
2022/11/27 10:05:27;;;;;;;23.80;13.78;;;;;;;;;;1692290;84;20954;-75
2022/11/27 10:08:12;;;;;;;29.27;16.50;;;;;;;;;;1691142;83;21460;-74
2022/11/27 10:10:57;;;;;;;26.12;15.45;;;;;;;;;;1638124;86;21039;-73
2022/11/27 10:14:02;;;;;;;26.23;15.15;;;;;;;;;;1649453;86;21045;-73
2022/11/27 10:20:22;;;;;;;27.17;15.20;;;;;;;;;;1637971;87;20883;-72
2022/11/27 10:26:40;;;;;;;27.95;14.18;;;;;;;;;;1642982;85;20891;-76
2022/11/27 10:29:12;;;;;;;;;;;;;;;;;;1639108;87;20980;-72
2022/11/27 10:35:21;;;;;;;19.10;12.53;;;;;;;;;;1644963;86;21012;-75
2022/11/27 10:38:06;;;;;;;24.30;12.75;;;;;;;;;;1643062;86;21102;-75
2022/11/27 10:40:39;;;;;;;22.62;13.05;;;;;;;;;;1641949;86;20946;-76
2022/11/27 10:43:21;;;;;;;25.48;14.00;;;;;;;;;;1644069;86;21469;-73
2022/11/27 10:45:54;;;;;;;20.10;12.18;;;;;;;;;;1642505;86;20952;-74
2022/11/27 10:48:22;;;;;;;24.30;14.30;;;;;;;;;;1643417;86;20882;-73
2022/11/27 10:54:36;;;;;;;23.90;12.98;;;;;;;;;;1631899;86;20901;-74
2022/11/27 11:00:51;;;;;;;22.35;13.95;;;;;;;;;;1639010;86;20964;-75
2022/11/27 11:03:19;;;;;;;30.80;18.40;;;;;;;;;;1635785;86;20879;-74
2022/11/27 11:06:00;;;;;;;29.52;19.00;;;;;;;;;;1648738;86;21111;-75
2022/11/27 11:08:31;;;;;;;38.45;24.12;;;;;;;;;;1644471;86;20875;-73
2022/11/27 11:11:05;;;;;;;109.72;60.45;;;;;;;;;;1643260;86;20985;-72
2022/11/27 11:17:17;;;;;;;37.58;20.57;;;;;;;;;;1645554;86;21025;-75
2022/11/27 11:19:45;;;;;;;26.12;15.95;;;;;;;;;;1648003;86;21108;-73
2022/11/27 11:26:01;;;;;;;23.62;14.00;;;;;;;;;;1642929;86;21469;-71
2022/11/27 11:28:29;;;;;;;25.60;14.28;;;;;;;;;;1645849;86;20934;-74
2022/11/27 11:30:59;;;;;;;;;;;;;;;;;;1636560;86;21440;-76
2022/11/27 11:37:09;;;;;;;24.60;14.20;;;;;;;;;;1618493;88;20957;-73
2022/11/27 11:43:26;;;;;;;18.95;11.40;;;;;;;;;;1625413;87;20906;-72
2022/11/27 11:45:57;;;;;;;24.98;12.00;;;;;;;;;;1625095;86;20952;-76
2022/11/27 11:52:25;;;;;;;24.40;14.05;;;;;;;;;;1634200;86;20960;-76
2022/11/27 11:58:32;;;;;;;18.62;12.03;;;;;;;;;;1641364;86;20446;-76
2022/11/27 12:01:35;;;;;;;19.25;12.85;;;;;;;;;;1636208;86;21406;-74
2022/11/27 12:04:18;;;;;;;18.57;11.93;;;;;;;;;;1641586;86;21114;-74
2022/11/27 12:07:15;;;;;;;21.82;12.70;;;;;;;;;;1623047;86;21018;-75
2022/11/27 12:09:59;;;;;;;15.55;9.58;;;;;;;;;;1627491;86;21483;-74
2022/11/27 12:12:48;;;;;;;20.85;12.40;;;;;;;;;;1631439;85;20963;-76
2022/11/27 12:15:34;;;;;;;19.92;11.83;;;;;;;;;;1620290;86;21026;-73
2022/11/27 12:18:15;;;;;;;19.67;12.65;;;;;;;;;;1644241;85;21117;-74
2022/11/27 12:24:35;;;;;;;18.00;11.20;;;;;;;;;;1606288;86;20924;-73
2022/11/27 12:31:02;;;;;;;18.92;11.90;;;;;;;;;;1622202;85;20917;-80
2022/11/27 12:37:55;;;;;;;21.82;11.83;;;;;;;;;;1632886;85;20968;-77
2022/11/27 12:44:19;;;;;;;22.15;12.88;;;;;;;;;;1606386;86;20972;-76
2022/11/27 12:50:43;;;;;;;20.15;12.10;;;;;;;;;;1607250;86;21526;-74
2022/11/27 12:57:08;;;;;;;20.80;15.08;;;;;;;;;;1613945;86;21000;-74
2022/11/27 12:59:45;;;;;;;17.02;11.55;;;;;;;;;;1618819;87;21515;-75
2022/11/27 13:06:08;;;;;;;19.17;11.80;;;;;;;;;;1646899;86;20940;-76
2022/11/27 13:08:48;;;;;;;16.00;10.50;;;;;;;;;;1646415;86;20905;-75
2022/11/27 13:11:17;;;;;;;17.80;12.85;;;;;;;;;;1645631;86;21161;-78
2022/11/27 13:13:57;;;;;;;21.07;11.95;;;;;;;;;;1645463;86;20939;-76
2022/11/27 13:16:28;;;;;;;18.27;11.88;;;;;;;;;;1645062;86;20919;-76
2022/11/27 13:19:20;;;;;;;18.67;12.65;;;;;;;;;;1619079;88;21219;-75
2022/11/27 13:21:48;;;;;;;19.23;11.70;;;;;;;;;;1598687;88;20921;-77
2022/11/27 13:27:55;;;;;;;18.07;10.28;;;;;;;;;;1628199;87;20993;-76
2022/11/27 13:30:25;;;;;;;19.30;12.90;;;;;;;;;;1621984;86;21048;-78
2022/11/27 13:36:38;;;;;;;21.15;12.80;;;;;;;;;;1637894;85;20941;-76
2022/11/27 13:39:05;;;;;;;20.08;12.18;;;;;;;;;;1634476;86;20949;-73
2022/11/27 13:45:22;;;;;;;;;;;;;;;;;;1635399;87;21100;-74
2022/11/27 13:47:51;;;;;;;16.23;10.88;;;;;;;;;;1629088;86;21052;-74
2022/11/27 13:50:21;;;;;;;18.82;12.05;;;;;;;;;;1632059;86;21500;-77
2022/11/27 13:56:15;;;;;;;19.95;12.30;;;;;;;;;;1635085;86;20127;-74
2022/11/27 14:02:23;;;;;;;16.75;10.35;;;;;;;;;;1647930;86;20903;-75
2022/11/27 14:04:51;;;;;;;16.00;11.48;;;;;;;;;;1645251;86;20946;-72
2022/11/27 14:07:19;;;;;;;16.35;12.10;;;;;;;;;;1646585;86;21030;-75
2022/11/27 14:09:52;;;;;;;17.50;11.10;;;;;;;;;;1649132;86;21103;-73
2022/11/27 14:12:27;;;;;;;16.73;11.78;;;;;;;;;;1645454;86;21541;-76
2022/11/27 14:15:22;;;;;;;15.65;11.20;;;;;;;;;;1646940;86;21132;-74
2022/11/27 14:17:51;;;;;;;17.25;11.73;;;;;;;;;;1643981;86;20963;-73
2022/11/27 14:20:28;;;;;;;16.37;11.75;;;;;;;;;;1645062;86;21528;-73
2022/11/27 14:22:57;;;;;;;18.45;12.53;;;;;;;;;;1641125;86;20883;-72
2022/11/27 14:25:29;;;;;;;17.73;11.33;;;;;;;;;;1637173;86;20950;-76
2022/11/27 14:28:15;;;;;;;16.85;9.78;;;;;;;;;;1616735;86;21227;-73
2022/11/27 14:30:49;;;;;;;16.93;10.50;;;;;;;;;;1617138;86;21503;-76
2022/11/27 14:33:22;;;;;;;18.10;11.95;;;;;;;;;;1600152;88;20922;-76
2022/11/27 14:39:35;;;;;;;17.37;11.48;;;;;;;;;;1618555;88;20929;-75
2022/11/27 14:42:04;;;;;;;18.65;11.33;;;;;;;;;;1632743;86;21747;-73
2022/11/27 14:48:01;;;;;;;15.43;10.88;;;;;;;;;;1638636;86;20964;-77
2022/11/27 14:50:29;;;;;;;18.07;11.03;;;;;;;;;;1624457;87;21040;-75
2022/11/27 14:52:57;;;;;;;18.82;13.38;;;;;;;;;;1632449;86;20988;-72
2022/11/27 14:55:26;;;;;;;17.55;11.55;;;;;;;;;;1605162;88;21111;-74
2022/11/27 14:57:54;;;;;;;;;;;;;;;;;;1570209;90;21008;-73
2022/11/27 15:04:27;;;;;;;17.12;10.95;;;;;;;;;;1644121;86;21524;-75
2022/11/27 15:06:56;;;;;;;17.37;12.65;;;;;;;;;;1647974;86;20935;-71
2022/11/27 15:13:23;;;;;;;18.12;12.35;;;;;;;;;;1645403;86;21002;-73
2022/11/27 15:15:58;;;;;;;21.17;13.43;;;;;;;;;;1644619;86;20942;-73
2022/11/27 15:18:25;;;;;;;15.88;11.93;;;;;;;;;;1647569;86;20914;-74
2022/11/27 15:20:53;;;;;;;20.57;14.98;;;;;;;;;;1646313;86;21441;-75
2022/11/27 15:23:24;;;;;;;24.47;16.75;;;;;;;;;;1646595;86;21718;-72
2022/11/27 15:26:02;;;;;;;23.32;18.92;;;;;;;;;;1641076;86;21021;-74
2022/11/27 15:28:44;;;;;;;18.40;12.33;;;;;;;;;;1628639;86;21003;-74
2022/11/27 15:31:31;;;;;;;20.77;11.93;;;;;;;;;;1606380;86;20977;-74
2022/11/27 15:34:05;;;;;;;17.60;12.40;;;;;;;;;;1631395;86;20906;-73
2022/11/27 15:36:42;;;;;;;22.90;16.57;;;;;;;;;;1617534;86;21482;-74
2022/11/27 15:39:23;;;;;;;18.25;12.78;;;;;;;;;;1640703;86;20946;-74
2022/11/27 15:41:55;;;;;;;22.62;16.65;;;;;;;;;;1628459;86;21429;-72
2022/11/27 15:48:16;;;;;;;20.57;13.72;;;;;;;;;;1643947;86;20942;-73
2022/11/27 15:50:44;;;;;;;20.65;12.65;;;;;;;;;;1645380;86;21126;-73
2022/11/27 15:53:13;;;;;;;16.55;12.45;;;;;;;;;;1646861;86;20918;-75
2022/11/27 15:55:42;;;;;;;16.95;12.37;;;;;;;;;;1647524;86;21448;-71
2022/11/27 15:58:10;;;;;;;19.00;14.33;;;;;;;;;;1647293;86;21505;-75
2022/11/27 16:00:39;;;;;;;17.85;12.10;;;;;;;;;;1647400;86;20907;-74
2022/11/27 16:03:06;;;;;;;16.37;13.27;;;;;;;;;;1643461;86;21757;-74
2022/11/27 16:05:34;;;;;;;20.97;13.00;;;;;;;;;;1647515;86;21492;-73
2022/11/27 16:08:04;;;;;;;25.25;16.45;;;;;;;;;;1648730;86;21752;-72
2022/11/27 16:10:31;;;;;;;28.00;18.05;;;;;;;;;;1644991;86;20955;-73
2022/11/27 16:12:59;;;;;;;20.97;13.57;;;;;;;;;;1646494;86;21564;-75
2022/11/27 16:15:27;;;;;;;46.73;27.07;;;;;;;;;;1646460;86;21103;-74
2022/11/27 16:17:55;;;;;;;17.00;12.20;;;;;;;;;;1648309;86;21046;-74
2022/11/27 16:20:22;;;;;;;33.48;19.40;;;;;;;;;;1643924;86;21461;-76
2022/11/27 16:22:51;;;;;;;41.83;22.60;;;;;;;;;;1643598;86;20967;-72
2022/11/27 16:25:19;;;;;;;21.17;13.22;;;;;;;;;;1646891;86;21425;-75